sensor_id;sensor_type;location;lat;lon;timestamp;P1;durP1;ratioP1;P2;durP2;ratioP2
76710;SDS011;65639;44.498;0.166;2022-12-29T00:03:29;11.03;;;7.40;;
76710;SDS011;65639;44.498;0.166;2022-12-29T00:20:45;13.97;;;7.23;;
76710;SDS011;65639;44.498;0.166;2022-12-29T00:37:55;13.33;;;7.17;;
76710;SDS011;65639;44.498;0.166;2022-12-29T00:54:58;12.17;;;7.57;;
76710;SDS011;65639;44.498;0.166;2022-12-29T01:12:09;12.07;;;6.87;;
76710;SDS011;65639;44.498;0.166;2022-12-29T01:29:17;13.53;;;7.50;;
76710;SDS011;65639;44.498;0.166;2022-12-29T02:03:37;8.97;;;5.90;;
76710;SDS011;65639;44.498;0.166;2022-12-29T02:20:53;8.93;;;6.07;;
76710;SDS011;65639;44.498;0.166;2022-12-29T02:37:59;11.73;;;5.77;;
76710;SDS011;65639;44.498;0.166;2022-12-29T02:55:05;9.40;;;6.30;;
76710;SDS011;65639;44.498;0.166;2022-12-29T03:12:14;10.53;;;5.63;;
76710;SDS011;65639;44.498;0.166;2022-12-29T03:29:22;8.30;;;5.27;;
76710;SDS011;65639;44.498;0.166;2022-12-29T03:46:32;9.87;;;5.90;;
76710;SDS011;65639;44.498;0.166;2022-12-29T04:20:59;9.87;;;6.43;;
76710;SDS011;65639;44.498;0.166;2022-12-29T04:38:00;6.93;;;5.27;;
76710;SDS011;65639;44.498;0.166;2022-12-29T04:55:09;9.87;;;5.87;;
76710;SDS011;65639;44.498;0.166;2022-12-29T05:29:27;10.90;;;8.17;;
76710;SDS011;65639;44.498;0.166;2022-12-29T05:46:35;13.33;;;7.83;;
76710;SDS011;65639;44.498;0.166;2022-12-29T06:03:46;23.03;;;15.00;;
76710;SDS011;65639;44.498;0.166;2022-12-29T06:21:00;14.80;;;8.53;;
76710;SDS011;65639;44.498;0.166;2022-12-29T06:38:06;15.07;;;10.03;;
76710;SDS011;65639;44.498;0.166;2022-12-29T06:55:15;11.07;;;8.93;;
76710;SDS011;65639;44.498;0.166;2022-12-29T07:12:25;15.03;;;9.30;;
76710;SDS011;65639;44.498;0.166;2022-12-29T07:29:39;16.00;;;10.93;;
76710;SDS011;65639;44.498;0.166;2022-12-29T08:03:55;18.60;;;10.07;;
76710;SDS011;65639;44.498;0.166;2022-12-29T08:21:04;15.50;;;7.00;;
76710;SDS011;65639;44.498;0.166;2022-12-29T08:55:32;10.40;;;5.83;;
76710;SDS011;65639;44.498;0.166;2022-12-29T09:12:34;7.67;;;6.17;;
76710;SDS011;65639;44.498;0.166;2022-12-29T09:29:46;12.63;;;6.80;;
76710;SDS011;65639;44.498;0.166;2022-12-29T09:46:55;9.07;;;6.17;;
76710;SDS011;65639;44.498;0.166;2022-12-29T10:04:06;9.43;;;5.37;;
76710;SDS011;65639;44.498;0.166;2022-12-29T10:21:20;11.73;;;5.77;;
76710;SDS011;65639;44.498;0.166;2022-12-29T10:38:30;9.83;;;5.23;;
76710;SDS011;65639;44.498;0.166;2022-12-29T10:55:37;8.87;;;4.60;;
76710;SDS011;65639;44.498;0.166;2022-12-29T11:29:54;9.13;;;4.97;;
76710;SDS011;65639;44.498;0.166;2022-12-29T11:47:02;7.80;;;5.70;;
76710;SDS011;65639;44.498;0.166;2022-12-29T12:04:11;14.13;;;10.50;;
76710;SDS011;65639;44.498;0.166;2022-12-29T12:21:23;18.27;;;11.43;;
76710;SDS011;65639;44.498;0.166;2022-12-29T12:38:31;6.67;;;4.63;;
76710;SDS011;65639;44.498;0.166;2022-12-29T12:55:44;5.80;;;4.73;;
76710;SDS011;65639;44.498;0.166;2022-12-29T13:12:52;8.57;;;4.43;;
76710;SDS011;65639;44.498;0.166;2022-12-29T13:30:00;5.97;;;4.37;;
76710;SDS011;65639;44.498;0.166;2022-12-29T13:47:13;6.50;;;4.80;;
76710;SDS011;65639;44.498;0.166;2022-12-29T14:04:22;5.93;;;4.50;;
76710;SDS011;65639;44.498;0.166;2022-12-29T14:21:29;7.57;;;4.80;;
76710;SDS011;65639;44.498;0.166;2022-12-29T14:38:36;5.90;;;4.60;;
76710;SDS011;65639;44.498;0.166;2022-12-29T14:55:47;4.23;;;1.40;;
76710;SDS011;65639;44.498;0.166;2022-12-29T15:12:52;4.80;;;1.53;;
76710;SDS011;65639;44.498;0.166;2022-12-29T15:30:02;2.27;;;1.67;;
76710;SDS011;65639;44.498;0.166;2022-12-29T15:47:11;4.10;;;1.33;;
76710;SDS011;65639;44.498;0.166;2022-12-29T16:04:19;5.33;;;2.50;;
76710;SDS011;65639;44.498;0.166;2022-12-29T16:21:28;4.13;;;1.90;;
76710;SDS011;65639;44.498;0.166;2022-12-29T16:38:37;9.13;;;5.63;;
76710;SDS011;65639;44.498;0.166;2022-12-29T16:55:46;10.67;;;7.90;;
76710;SDS011;65639;44.498;0.166;2022-12-29T17:12:55;7.00;;;4.10;;
76710;SDS011;65639;44.498;0.166;2022-12-29T17:30:05;9.23;;;7.40;;
76710;SDS011;65639;44.498;0.166;2022-12-29T17:47:16;9.47;;;6.13;;
76710;SDS011;65639;44.498;0.166;2022-12-29T18:04:23;5.50;;;3.40;;
76710;SDS011;65639;44.498;0.166;2022-12-29T18:21:35;4.87;;;3.10;;
76710;SDS011;65639;44.498;0.166;2022-12-29T18:38:44;6.90;;;4.37;;
76710;SDS011;65639;44.498;0.166;2022-12-29T18:55:51;9.53;;;6.57;;
76710;SDS011;65639;44.498;0.166;2022-12-29T19:13:00;20.73;;;10.60;;
76710;SDS011;65639;44.498;0.166;2022-12-29T19:30:11;10.23;;;6.90;;
76710;SDS011;65639;44.498;0.166;2022-12-29T19:47:20;8.23;;;5.43;;
76710;SDS011;65639;44.498;0.166;2022-12-29T20:04:30;9.10;;;5.37;;
76710;SDS011;65639;44.498;0.166;2022-12-29T20:21:39;11.13;;;5.40;;
76710;SDS011;65639;44.498;0.166;2022-12-29T20:38:50;5.87;;;2.80;;
76710;SDS011;65639;44.498;0.166;2022-12-29T20:55:59;9.57;;;4.23;;
76710;SDS011;65639;44.498;0.166;2022-12-29T21:13:08;4.27;;;2.70;;
76710;SDS011;65639;44.498;0.166;2022-12-29T21:30:17;4.53;;;3.00;;
76710;SDS011;65639;44.498;0.166;2022-12-29T21:47:32;2.97;;;2.30;;
76710;SDS011;65639;44.498;0.166;2022-12-29T22:04:43;7.90;;;2.97;;
76710;SDS011;65639;44.498;0.166;2022-12-29T22:21:46;8.20;;;2.93;;
76710;SDS011;65639;44.498;0.166;2022-12-29T22:38:53;4.63;;;2.23;;
76710;SDS011;65639;44.498;0.166;2022-12-29T22:56:05;6.73;;;2.47;;
76710;SDS011;65639;44.498;0.166;2022-12-29T23:13:13;6.23;;;2.17;;
76710;SDS011;65639;44.498;0.166;2022-12-29T23:30:22;6.87;;;3.30;;
76710;SDS011;65639;44.498;0.166;2022-12-29T23:47:32;0.47;;;0.47;;
